Disclaimer

Please do not use the information listed here in-flight or in-navigation, as they are not provided to us by the airports but are provided by volunteers, so they might be outdated.

Search


Regions


Airport information page

Radio informations:
Tower (TWR) - 118.2 MHz
Ground (GND) - 121.6 MHz
DEP - 119.2 MHz
Clearance delivery - 121.9 MHz
Automatic Terminal Information Service (ATIS) - 127.85 MHz
Approach (APP) - 120.25 MHz

Airport informations:
Latitude: 34° 25' 38.30" N
Longitude: 135° 14' 38.66" E
Elevation: 26 feet - 8 meters
Operating hours: N/A
Operating agency: Civil government, landing fees and diplomatic clearance may be required
Timezone: UTC+9
Fuel: Jet A1, without icing nhibitor.

Runway information:
06/24 - 11483 x 200 feet< - >3500 x 61 meters

Recent METARs:
RJBB 190100Z 07009KT 9999 FEW005 SCT020 BKN060 13/10 Q1017 NOSIG
RJBB 190130Z 05011KT 9999 -SHRA FEW008 SCT020 BKN050 14/10 Q1017 TEMPO SHRA
RJBB 190200Z 04012KT 9999 -SHRA FEW008 SCT020 BKN040 14/11 Q1017 NOSIG

Airport on the map: